Camarillo, CA

5:16 PM PDT on August 29, 2014 (GMT -0700)
Camarillo Heights | Change Station
CLOSE
Current Station
Personal Weather Station
Location: Camarillo, CA
Elevation: 607 ft
Nearby Weather Stations

Elev 607 ft 34.25 °N, 119.05 °W | Updated 11 minutes ago

Clear
Clear
85.3 °F
Feels Like 85 °F
N
2.7
Wind Variable Wind from WSW

Today
High -- | Low -- °F
--% Chance of Precip.
Yesterday
High -- | Low -- °F
Precip. -- in
6:27 AM 7:26 PM
Waxing Crescent, 17% visible
Pressure 29.84 in
Visibility 10.0 miles
Clouds Clear
Heat Index 85 °F
Dew Point 60 °F
Humidity 43%
Rainfall 0.00 in
Snow Depth Not available.
UV 3 out of 12
Pollen 9.30 out of 12
Ozone Good
PM2.5 Moderate
Flu Activity Not available.
METAR KCMA 292355Z 24007KT 10SM CLR 27/14 A2982 RMK AO2 SLP105 T02720139 10283 20256 56010

More Conditions Fewer Conditions

Pressure 29.84 in
Visibility 10.0 miles
Clouds Clear
Heat Index 85 °F
Dew Point 60 °F
Humidity 43%
Rainfall 0.00 in
Snow Depth Not available.
UV 3 out of 12
Pollen 9.30 out of 12
Ozone Good
PM2.5 Moderate
Flu Activity Not available.
METAR KCMA 292355Z 24007KT 10SM CLR 27/14 A2982 RMK AO2 SLP105 T02720139 10283 20256 56010

More Conditions Fewer Conditions

10-Day Weather Forecast

Almanac

Astronomy

Aug. 29, 2014 Rise Set
Actual Time 6:27 AM PDT 7:26 PM PDT
Civil Twilight 6:01 AM PDT 7:51 PM PDT
Nautical Twilight 5:31 AM PDT 8:22 PM PDT
Astronomical Twilight 4:59 AM PDT 8:53 PM PDT
Moon 10:09 AM PDT (8/29) 9:39 PM PDT (8/29)
Length of Visible Light 13h 49m
Length of Day
12h 58m
Tomorrow will be 2m 1s shorter.
Waxing Crescent, 17% of the Moon is Illuminated
Today
Waxing Crescent
Sep 2
First Quarter
Sep 8
Full
Sep 15
Last Quarter
Sep 24
New

Today's Extremes

State Highs State Lows

Community

WunderPhotos

Upload Photos

1,748,382 photos uploaded!

Nearby

Air Quality

  Air Quality AQ Index Pollutant
Yesterday Moderate
PM2.5
Yesterday Good
OZONE
Current Moderate
PM2.5
Current Good
OZONE
Friday Moderate
PM2.5
Friday Good
OZONE
Saturday Moderate
PM2.5
Saturday Good
OZONE
Sunday Moderate
PM2.5
Sunday Good
OZONE
Monday Moderate
PM2.5
Monday Good
OZONE
Tuesday Moderate
PM2.5
Tuesday Good
OZONE

Snow Depth

Station Depth Elevation
Leavitt Meadows 0 in 7200 ft
Summit Meadow 0 in 9122 ft
Monitor Pass 0 in 8350 ft
Hagan's Meadow 0 in 8000 ft
CSS Lab 0 in 6900 ft

Earthquake Activity

City Distance Mag. Time & Date
No recent earthquake activity has been reported nearby.
Minimum magnitude displayed is 2.5.

Coastal Water Temperatures

Place Temperature
Santa Monica Pier 73.0 °F
Los Angeles, CA 64.9 °F
Port San Luis, CA 62.1 °F

Nearby Weather Stations